sensor_id;sensor_type;location;lat;lon;timestamp;P1;P2;P0
62778;PMS7003;48821;48.796;2.396;2022-11-11T07:33:42;11.25;8.00;6.25
62778;PMS7003;48821;48.796;2.396;2022-11-11T07:34:53;9.25;9.25;6.75
62778;PMS7003;48821;48.796;2.396;2022-11-11T07:36:03;7.50;6.25;4.00
62778;PMS7003;48821;48.796;2.396;2022-11-11T07:37:13;8.75;6.75;4.75
62778;PMS7003;48821;48.796;2.396;2022-11-11T07:38:24;10.00;7.25;4.75
62778;PMS7003;48821;48.796;2.396;2022-11-11T07:39:34;8.75;8.50;5.50
62778;PMS7003;48821;48.796;2.396;2022-11-11T07:40:44;9.25;8.75;6.50
62778;PMS7003;48821;48.796;2.396;2022-11-11T07:41:55;7.75;7.25;5.50
62778;PMS7003;48821;48.796;2.396;2022-11-11T07:43:05;12.50;8.75;6.75
62778;PMS7003;48821;48.796;2.396;2022-11-11T07:44:15;8.75;7.50;5.50
62778;PMS7003;48821;48.796;2.396;2022-11-11T07:45:25;10.25;8.00;6.00
62778;PMS7003;48821;48.796;2.396;2022-11-11T07:46:36;8.75;8.00;7.00
62778;PMS7003;48821;48.796;2.396;2022-11-11T07:47:46;7.25;6.75;5.00
62778;PMS7003;48821;48.796;2.396;2022-11-11T07:48:56;8.50;6.50;5.00
62778;PMS7003;48821;48.796;2.396;2022-11-11T07:50:07;5.75;5.75;4.25
62778;PMS7003;48821;48.796;2.396;2022-11-11T07:51:18;8.25;7.50;5.50
62778;PMS7003;48821;48.796;2.396;2022-11-11T07:52:28;7.75;7.50;5.75
62778;PMS7003;48821;48.796;2.396;2022-11-11T07:53:39;8.25;8.25;5.75
62778;PMS7003;48821;48.796;2.396;2022-11-11T07:54:49;7.75;7.00;5.75
62778;PMS7003;48821;48.796;2.396;2022-11-11T07:55:59;7.25;6.50;5.00
62778;PMS7003;48821;48.796;2.396;2022-11-11T07:57:10;7.25;7.25;5.00
62778;PMS7003;48821;48.796;2.396;2022-11-11T07:58:20;6.25;6.25;5.50
62778;PMS7003;48821;48.796;2.396;2022-11-11T07:59:30;11.00;7.50;5.25
62778;PMS7003;48821;48.796;2.396;2022-11-11T08:00:41;6.00;5.50;3.75
62778;PMS7003;48821;48.796;2.396;2022-11-11T08:01:51;10.00;7.75;5.25
62778;PMS7003;48821;48.796;2.396;2022-11-11T08:03:02;7.50;7.00;4.00
62778;PMS7003;48821;48.796;2.396;2022-11-11T08:04:12;8.25;6.75;3.75
62778;PMS7003;48821;48.796;2.396;2022-11-11T08:05:22;6.75;6.50;4.00
62778;PMS7003;48821;48.796;2.396;2022-11-11T08:06:33;8.50;6.75;5.50
62778;PMS7003;48821;48.796;2.396;2022-11-11T08:07:43;8.25;6.75;5.00
62778;PMS7003;48821;48.796;2.396;2022-11-11T08:08:54;8.00;8.00;5.75
62778;PMS7003;48821;48.796;2.396;2022-11-11T08:10:04;9.25;8.50;5.50
62778;PMS7003;48821;48.796;2.396;2022-11-11T08:11:16;7.00;6.75;3.00
62778;PMS7003;48821;48.796;2.396;2022-11-11T08:12:52;9.25;8.50;5.75
62778;PMS7003;48821;48.796;2.396;2022-11-11T08:14:22;8.50;8.50;5.50
62778;PMS7003;48821;48.796;2.396;2022-11-11T08:15:32;8.00;6.50;4.00
62778;PMS7003;48821;48.796;2.396;2022-11-11T08:16:42;8.50;7.50;6.50
62778;PMS7003;48821;48.796;2.396;2022-11-11T08:17:52;7.00;5.75;4.00
62778;PMS7003;48821;48.796;2.396;2022-11-11T08:19:03;9.50;6.75;4.50
62778;PMS7003;48821;48.796;2.396;2022-11-11T08:20:13;9.75;9.25;6.50
62778;PMS7003;48821;48.796;2.396;2022-11-11T08:21:24;8.75;7.75;5.00
62778;PMS7003;48821;48.796;2.396;2022-11-11T08:22:35;9.00;7.75;5.50
62778;PMS7003;48821;48.796;2.396;2022-11-11T08:23:46;8.00;8.00;6.00
62778;PMS7003;48821;48.796;2.396;2022-11-11T08:24:56;8.00;7.50;5.50
62778;PMS7003;48821;48.796;2.396;2022-11-11T08:26:07;9.75;9.00;5.50
62778;PMS7003;48821;48.796;2.396;2022-11-11T08:27:18;11.25;9.50;5.75
62778;PMS7003;48821;48.796;2.396;2022-11-11T08:28:29;8.25;7.25;5.50
62778;PMS7003;48821;48.796;2.396;2022-11-11T08:29:40;9.50;8.50;6.50
62778;PMS7003;48821;48.796;2.396;2022-11-11T08:30:51;10.00;9.00;7.50
62778;PMS7003;48821;48.796;2.396;2022-11-11T08:32:01;8.25;7.50;5.50
62778;PMS7003;48821;48.796;2.396;2022-11-11T08:33:12;12.00;10.25;8.25
62778;PMS7003;48821;48.796;2.396;2022-11-11T08:34:22;9.75;8.75;7.25
62778;PMS7003;48821;48.796;2.396;2022-11-11T08:35:32;7.75;5.50;3.75
62778;PMS7003;48821;48.796;2.396;2022-11-11T08:36:43;8.00;6.75;5.25
62778;PMS7003;48821;48.796;2.396;2022-11-11T08:37:53;7.50;7.25;6.25
62778;PMS7003;48821;48.796;2.396;2022-11-11T08:39:04;9.00;8.00;5.75
62778;PMS7003;48821;48.796;2.396;2022-11-11T08:40:15;7.25;6.50;4.50
62778;PMS7003;48821;48.796;2.396;2022-11-11T08:41:25;10.00;7.50;5.75
62778;PMS7003;48821;48.796;2.396;2022-11-11T08:42:36;9.25;8.00;5.75
62778;PMS7003;48821;48.796;2.396;2022-11-11T08:43:46;9.00;7.50;6.25
62778;PMS7003;48821;48.796;2.396;2022-11-11T08:44:56;12.00;8.50;6.50
62778;PMS7003;48821;48.796;2.396;2022-11-11T08:46:07;8.75;7.50;6.00
62778;PMS7003;48821;48.796;2.396;2022-11-11T08:47:18;9.00;8.50;6.75
62778;PMS7003;48821;48.796;2.396;2022-11-11T08:48:30;7.75;7.75;6.50
62778;PMS7003;48821;48.796;2.396;2022-11-11T08:49:41;6.75;6.75;4.25
62778;PMS7003;48821;48.796;2.396;2022-11-11T08:50:51;11.25;8.25;5.50
62778;PMS7003;48821;48.796;2.396;2022-11-11T08:52:02;9.75;8.75;5.75
62778;PMS7003;48821;48.796;2.396;2022-11-11T08:53:13;9.75;8.25;4.75
62778;PMS7003;48821;48.796;2.396;2022-11-11T08:54:23;7.50;7.50;4.00
62778;PMS7003;48821;48.796;2.396;2022-11-11T08:55:34;9.50;8.00;6.75
62778;PMS7003;48821;48.796;2.396;2022-11-11T08:56:44;12.25;10.00;6.75
62778;PMS7003;48821;48.796;2.396;2022-11-11T08:57:58;6.75;6.75;4.50
62778;PMS7003;48821;48.796;2.396;2022-11-11T08:59:09;14.00;12.75;8.25
62778;PMS7003;48821;48.796;2.396;2022-11-11T09:00:20;11.25;8.75;6.50
62778;PMS7003;48821;48.796;2.396;2022-11-11T09:01:32;9.25;9.00;7.00
62778;PMS7003;48821;48.796;2.396;2022-11-11T09:02:43;9.50;8.50;6.75
62778;PMS7003;48821;48.796;2.396;2022-11-11T09:03:53;10.75;9.25;6.50
62778;PMS7003;48821;48.796;2.396;2022-11-11T09:05:03;10.25;8.50;5.50
62778;PMS7003;48821;48.796;2.396;2022-11-11T09:06:15;12.75;9.50;7.25
62778;PMS7003;48821;48.796;2.396;2022-11-11T09:07:26;11.25;8.50;6.75
62778;PMS7003;48821;48.796;2.396;2022-11-11T09:08:36;10.50;9.00;6.00
62778;PMS7003;48821;48.796;2.396;2022-11-11T09:09:47;12.25;9.50;7.00
62778;PMS7003;48821;48.796;2.396;2022-11-11T09:10:57;7.50;7.50;6.75
62778;PMS7003;48821;48.796;2.396;2022-11-11T09:12:08;11.75;6.50;4.00
62778;PMS7003;48821;48.796;2.396;2022-11-11T09:13:19;12.00;8.75;6.50
62778;PMS7003;48821;48.796;2.396;2022-11-11T09:14:29;10.25;8.00;6.75
62778;PMS7003;48821;48.796;2.396;2022-11-11T09:15:40;9.50;9.00;6.50
62778;PMS7003;48821;48.796;2.396;2022-11-11T09:16:50;9.50;6.50;5.00
62778;PMS7003;48821;48.796;2.396;2022-11-11T09:18:00;7.50;6.75;4.00
62778;PMS7003;48821;48.796;2.396;2022-11-11T09:19:12;7.25;7.25;4.00
62778;PMS7003;48821;48.796;2.396;2022-11-11T09:20:22;8.25;8.00;5.00
62778;PMS7003;48821;48.796;2.396;2022-11-11T09:21:33;8.25;7.25;5.25
62778;PMS7003;48821;48.796;2.396;2022-11-11T09:22:44;12.50;8.00;6.50
62778;PMS7003;48821;48.796;2.396;2022-11-11T09:23:56;8.50;6.75;4.75
62778;PMS7003;48821;48.796;2.396;2022-11-11T09:25:06;6.75;6.00;5.00
62778;PMS7003;48821;48.796;2.396;2022-11-11T09:26:17;7.75;7.00;4.50
62778;PMS7003;48821;48.796;2.396;2022-11-11T09:27:27;9.00;8.50;5.50
62778;PMS7003;48821;48.796;2.396;2022-11-11T09:28:37;5.25;5.25;4.00
62778;PMS7003;48821;48.796;2.396;2022-11-11T09:29:48;7.00;5.50;4.75
62778;PMS7003;48821;48.796;2.396;2022-11-11T09:30:59;9.50;8.00;7.00
62778;PMS7003;48821;48.796;2.396;2022-11-11T09:32:09;4.75;4.75;4.00
62778;PMS7003;48821;48.796;2.396;2022-11-11T09:33:20;10.25;7.50;4.25
62778;PMS7003;48821;48.796;2.396;2022-11-11T09:34:30;7.50;7.50;5.25
62778;PMS7003;48821;48.796;2.396;2022-11-11T09:35:40;7.00;6.00;5.00
62778;PMS7003;48821;48.796;2.396;2022-11-11T09:36:51;8.25;8.00;6.75
62778;PMS7003;48821;48.796;2.396;2022-11-11T09:38:01;10.75;8.50;5.25
62778;PMS7003;48821;48.796;2.396;2022-11-11T09:39:12;8.00;8.00;7.50
62778;PMS7003;48821;48.796;2.396;2022-11-11T09:40:23;11.50;9.50;7.00
62778;PMS7003;48821;48.796;2.396;2022-11-11T09:43:05;10.50;8.50;6.50
62778;PMS7003;48821;48.796;2.396;2022-11-11T09:45:48;7.50;7.25;5.25
62778;PMS7003;48821;48.796;2.396;2022-11-11T09:47:20;8.50;8.50;6.75
62778;PMS7003;48821;48.796;2.396;2022-11-11T09:50:17;13.50;12.50;9.50
62778;PMS7003;48821;48.796;2.396;2022-11-11T09:51:38;16.00;15.75;11.00
62778;PMS7003;48821;48.796;2.396;2022-11-11T09:53:14;13.75;13.75;9.75
62778;PMS7003;48821;48.796;2.396;2022-11-11T09:55:59;21.75;13.00;9.50
62778;PMS7003;48821;48.796;2.396;2022-11-11T09:57:21;17.00;15.00;9.75
62778;PMS7003;48821;48.796;2.396;2022-11-11T09:58:47;14.50;11.75;8.75
62778;PMS7003;48821;48.796;2.396;2022-11-11T10:00:04;14.75;12.50;8.75
62778;PMS7003;48821;48.796;2.396;2022-11-11T10:01:25;9.25;9.00;7.00
62778;PMS7003;48821;48.796;2.396;2022-11-11T10:02:39;15.00;13.00;8.25
62778;PMS7003;48821;48.796;2.396;2022-11-11T10:05:43;9.75;8.75;6.75
62778;PMS7003;48821;48.796;2.396;2022-11-11T10:07:13;11.00;10.25;8.00
62778;PMS7003;48821;48.796;2.396;2022-11-11T10:10:29;12.75;11.75;8.25
62778;PMS7003;48821;48.796;2.396;2022-11-11T10:12:13;10.50;10.00;7.50
62778;PMS7003;48821;48.796;2.396;2022-11-11T10:14:41;8.75;7.50;4.75
62778;PMS7003;48821;48.796;2.396;2022-11-11T10:18:10;11.75;9.00;7.50
62778;PMS7003;48821;48.796;2.396;2022-11-11T10:19:40;9.00;7.00;5.50
62778;PMS7003;48821;48.796;2.396;2022-11-11T10:21:01;9.00;9.00;6.75
62778;PMS7003;48821;48.796;2.396;2022-11-11T10:22:20;6.00;6.00;4.00
62778;PMS7003;48821;48.796;2.396;2022-11-11T10:23:35;8.25;8.00;5.25
62778;PMS7003;48821;48.796;2.396;2022-11-11T10:24:50;8.50;8.00;5.50
62778;PMS7003;48821;48.796;2.396;2022-11-11T10:26:34;9.00;8.00;6.00
62778;PMS7003;48821;48.796;2.396;2022-11-11T10:27:50;8.50;7.75;5.50
62778;PMS7003;48821;48.796;2.396;2022-11-11T10:29:04;7.75;7.75;5.50
62778;PMS7003;48821;48.796;2.396;2022-11-11T10:30:23;9.00;9.00;7.25
62778;PMS7003;48821;48.796;2.396;2022-11-11T10:31:38;7.25;6.25;5.00
62778;PMS7003;48821;48.796;2.396;2022-11-11T10:33:01;11.25;8.00;5.25
62778;PMS7003;48821;48.796;2.396;2022-11-11T10:34:13;9.50;8.75;6.75
62778;PMS7003;48821;48.796;2.396;2022-11-11T10:35:31;11.25;6.00;4.50
62778;PMS7003;48821;48.796;2.396;2022-11-11T10:36:43;10.75;10.25;7.75
62778;PMS7003;48821;48.796;2.396;2022-11-11T10:38:05;8.75;8.00;5.25
62778;PMS7003;48821;48.796;2.396;2022-11-11T10:39:49;11.50;9.00;6.25
62778;PMS7003;48821;48.796;2.396;2022-11-11T10:42:27;10.25;9.00;8.00
62778;PMS7003;48821;48.796;2.396;2022-11-11T10:43:37;9.75;9.00;6.00
62778;PMS7003;48821;48.796;2.396;2022-11-11T10:44:47;9.25;7.75;5.50
62778;PMS7003;48821;48.796;2.396;2022-11-11T10:50:25;7.00;5.50;4.75
62778;PMS7003;48821;48.796;2.396;2022-11-11T10:51:47;9.75;8.25;7.00
62778;PMS7003;48821;48.796;2.396;2022-11-11T10:53:08;8.25;7.75;7.00
62778;PMS7003;48821;48.796;2.396;2022-11-11T10:54:31;10.00;9.25;8.00
62778;PMS7003;48821;48.796;2.396;2022-11-11T10:57:28;7.00;7.00;5.25
62778;PMS7003;48821;48.796;2.396;2022-11-11T10:59:01;9.50;6.75;5.00
62778;PMS7003;48821;48.796;2.396;2022-11-11T11:00:31;8.25;7.50;5.25
62778;PMS7003;48821;48.796;2.396;2022-11-11T11:03:31;8.00;8.00;5.25
62778;PMS7003;48821;48.796;2.396;2022-11-11T11:06:07;11.25;10.25;7.75
62778;PMS7003;48821;48.796;2.396;2022-11-11T11:07:27;10.25;9.00;7.50
62778;PMS7003;48821;48.796;2.396;2022-11-11T11:08:45;12.00;9.75;8.00
62778;PMS7003;48821;48.796;2.396;2022-11-11T11:10:00;9.50;7.00;5.00
62778;PMS7003;48821;48.796;2.396;2022-11-11T11:11:29;9.50;8.00;6.25
62778;PMS7003;48821;48.796;2.396;2022-11-11T11:12:46;10.50;8.25;6.50
62778;PMS7003;48821;48.796;2.396;2022-11-11T11:14:23;7.50;7.50;6.75
62778;PMS7003;48821;48.796;2.396;2022-11-11T11:15:40;6.00;4.25;2.75
62778;PMS7003;48821;48.796;2.396;2022-11-11T11:16:59;9.00;8.75;6.75
62778;PMS7003;48821;48.796;2.396;2022-11-11T11:18:18;8.00;7.75;5.25
62778;PMS7003;48821;48.796;2.396;2022-11-11T11:19:29;10.75;8.50;6.25
62778;PMS7003;48821;48.796;2.396;2022-11-11T11:22:10;14.25;10.00;7.75
62778;PMS7003;48821;48.796;2.396;2022-11-11T11:23:40;10.75;9.00;6.25
62778;PMS7003;48821;48.796;2.396;2022-11-11T11:24:52;9.75;8.75;7.25
62778;PMS7003;48821;48.796;2.396;2022-11-11T11:26:20;8.75;8.25;6.25
62778;PMS7003;48821;48.796;2.396;2022-11-11T11:27:30;9.75;9.75;7.75
62778;PMS7003;48821;48.796;2.396;2022-11-11T11:31:33;7.75;6.50;5.50
62778;PMS7003;48821;48.796;2.396;2022-11-11T11:33:05;12.25;8.50;6.00
62778;PMS7003;48821;48.796;2.396;2022-11-11T11:34:16;10.00;8.50;6.75
62778;PMS7003;48821;48.796;2.396;2022-11-11T11:35:40;8.75;8.75;7.50
62778;PMS7003;48821;48.796;2.396;2022-11-11T11:37:00;12.00;9.50;7.25
62778;PMS7003;48821;48.796;2.396;2022-11-11T11:38:11;11.50;9.50;7.75
62778;PMS7003;48821;48.796;2.396;2022-11-11T11:39:32;8.75;7.75;6.75
62778;PMS7003;48821;48.796;2.396;2022-11-11T11:40:51;13.75;9.50;7.75
62778;PMS7003;48821;48.796;2.396;2022-11-11T11:42:05;8.50;5.75;5.25
62778;PMS7003;48821;48.796;2.396;2022-11-11T11:43:35;10.00;8.50;6.25
62778;PMS7003;48821;48.796;2.396;2022-11-11T11:44:47;10.75;8.50;7.50
62778;PMS7003;48821;48.796;2.396;2022-11-11T11:45:58;13.50;9.25;7.25
62778;PMS7003;48821;48.796;2.396;2022-11-11T11:47:13;11.25;8.75;7.00
62778;PMS7003;48821;48.796;2.396;2022-11-11T11:49:50;14.75;8.25;6.50
62778;PMS7003;48821;48.796;2.396;2022-11-11T11:52:49;9.50;9.50;7.25
62778;PMS7003;48821;48.796;2.396;2022-11-11T11:55:56;10.50;10.00;8.50
62778;PMS7003;48821;48.796;2.396;2022-11-11T12:01:04;13.00;9.25;7.25
62778;PMS7003;48821;48.796;2.396;2022-11-11T12:11:17;10.00;9.50;8.00
62778;PMS7003;48821;48.796;2.396;2022-11-11T12:15:40;12.00;10.00;7.75
62778;PMS7003;48821;48.796;2.396;2022-11-11T12:17:00;9.75;9.00;7.75
62778;PMS7003;48821;48.796;2.396;2022-11-11T12:20:09;10.25;7.50;6.25
62778;PMS7003;48821;48.796;2.396;2022-11-11T12:21:28;10.25;6.50;6.25
62778;PMS7003;48821;48.796;2.396;2022-11-11T12:22:53;10.75;8.00;5.75
62778;PMS7003;48821;48.796;2.396;2022-11-11T12:31:06;13.75;12.00;9.00
62778;PMS7003;48821;48.796;2.396;2022-11-11T12:38:49;10.75;10.25;8.25
62778;PMS7003;48821;48.796;2.396;2022-11-11T12:42:56;9.25;8.75;7.50
62778;PMS7003;48821;48.796;2.396;2022-11-11T12:44:27;11.50;10.75;8.75
62778;PMS7003;48821;48.796;2.396;2022-11-11T12:47:57;12.50;12.00;9.25
62778;PMS7003;48821;48.796;2.396;2022-11-11T12:53:49;10.00;10.00;8.00
62778;PMS7003;48821;48.796;2.396;2022-11-11T12:57:58;10.50;8.25;7.25
62778;PMS7003;48821;48.796;2.396;2022-11-11T12:59:37;14.00;11.25;8.25
62778;PMS7003;48821;48.796;2.396;2022-11-11T13:00:52;14.75;12.50;9.00
62778;PMS7003;48821;48.796;2.396;2022-11-11T13:03:59;13.50;13.50;11.00
62778;PMS7003;48821;48.796;2.396;2022-11-11T13:08:31;14.00;11.50;8.50
62778;PMS7003;48821;48.796;2.396;2022-11-11T13:10:12;10.50;9.00;7.50
62778;PMS7003;48821;48.796;2.396;2022-11-11T13:11:51;11.25;9.25;8.00
62778;PMS7003;48821;48.796;2.396;2022-11-11T13:13:34;11.75;8.75;7.50
62778;PMS7003;48821;48.796;2.396;2022-11-11T13:16:40;16.25;11.50;9.00
62778;PMS7003;48821;48.796;2.396;2022-11-11T13:17:50;11.50;10.25;7.50
62778;PMS7003;48821;48.796;2.396;2022-11-11T13:20:28;13.00;10.00;7.75
62778;PMS7003;48821;48.796;2.396;2022-11-11T13:21:49;9.50;8.75;4.75
62778;PMS7003;48821;48.796;2.396;2022-11-11T13:23:08;13.00;10.75;7.00
62778;PMS7003;48821;48.796;2.396;2022-11-11T13:24:20;15.00;14.00;9.25
62778;PMS7003;48821;48.796;2.396;2022-11-11T13:25:32;10.25;10.25;7.75
62778;PMS7003;48821;48.796;2.396;2022-11-11T13:28:29;14.75;11.75;8.50
62778;PMS7003;48821;48.796;2.396;2022-11-11T13:32:46;16.00;13.25;9.00
62778;PMS7003;48821;48.796;2.396;2022-11-11T13:34:03;13.50;11.75;9.50
62778;PMS7003;48821;48.796;2.396;2022-11-11T13:36:49;13.75;11.00;8.00
62778;PMS7003;48821;48.796;2.396;2022-11-11T13:38:03;16.00;11.75;9.25
62778;PMS7003;48821;48.796;2.396;2022-11-11T13:39:47;13.25;12.75;9.25
62778;PMS7003;48821;48.796;2.396;2022-11-11T13:40:55;12.50;12.25;8.75
62778;PMS7003;48821;48.796;2.396;2022-11-11T13:42:10;16.00;10.25;8.25
62778;PMS7003;48821;48.796;2.396;2022-11-11T13:44:58;14.25;12.25;8.50
62778;PMS7003;48821;48.796;2.396;2022-11-11T13:47:44;12.25;10.25;7.75
62778;PMS7003;48821;48.796;2.396;2022-11-11T13:48:56;13.00;9.75;8.50
62778;PMS7003;48821;48.796;2.396;2022-11-11T13:50:12;10.00;10.00;7.00
62778;PMS7003;48821;48.796;2.396;2022-11-11T13:52:52;15.00;13.25;9.50
62778;PMS7003;48821;48.796;2.396;2022-11-11T13:55:39;12.50;11.00;8.75
62778;PMS7003;48821;48.796;2.396;2022-11-11T13:57:02;16.00;14.00;9.25
62778;PMS7003;48821;48.796;2.396;2022-11-11T13:58:24;15.75;12.00;8.25
62778;PMS7003;48821;48.796;2.396;2022-11-11T14:01:35;12.50;10.50;7.75
62778;PMS7003;48821;48.796;2.396;2022-11-11T14:03:26;17.50;13.50;7.75
62778;PMS7003;48821;48.796;2.396;2022-11-11T14:04:22;15.00;11.00;9.50
62778;PMS7003;48821;48.796;2.396;2022-11-11T14:05:33;12.25;9.25;7.25
62778;PMS7003;48821;48.796;2.396;2022-11-11T14:07:56;13.25;10.25;8.25
62778;PMS7003;48821;48.796;2.396;2022-11-11T14:09:08;12.75;9.75;8.00
62778;PMS7003;48821;48.796;2.396;2022-11-11T14:11:30;16.00;12.00;9.00
62778;PMS7003;48821;48.796;2.396;2022-11-11T14:12:44;17.25;14.00;11.00
62778;PMS7003;48821;48.796;2.396;2022-11-11T14:13:57;12.00;11.25;9.25
62778;PMS7003;48821;48.796;2.396;2022-11-11T14:17:54;10.00;9.75;8.25
62778;PMS7003;48821;48.796;2.396;2022-11-11T14:20:37;10.00;9.50;7.75
62778;PMS7003;48821;48.796;2.396;2022-11-11T14:24:38;10.75;9.75;8.25
62778;PMS7003;48821;48.796;2.396;2022-11-11T14:26:14;12.25;9.00;7.25
62778;PMS7003;48821;48.796;2.396;2022-11-11T14:27:24;8.25;6.25;5.00
62778;PMS7003;48821;48.796;2.396;2022-11-11T14:28:40;9.75;8.75;7.25
62778;PMS7003;48821;48.796;2.396;2022-11-11T14:30:00;9.00;9.00;7.00
62778;PMS7003;48821;48.796;2.396;2022-11-11T14:34:01;8.75;8.75;6.25
62778;PMS7003;48821;48.796;2.396;2022-11-11T14:35:24;8.25;7.75;7.00
62778;PMS7003;48821;48.796;2.396;2022-11-11T14:36:50;10.00;8.25;6.25
62778;PMS7003;48821;48.796;2.396;2022-11-11T14:39:40;7.75;7.75;5.00
62778;PMS7003;48821;48.796;2.396;2022-11-11T14:40:56;10.25;10.25;8.25
62778;PMS7003;48821;48.796;2.396;2022-11-11T14:43:45;9.75;9.75;7.25
62778;PMS7003;48821;48.796;2.396;2022-11-11T14:44:55;8.50;7.50;5.75
62778;PMS7003;48821;48.796;2.396;2022-11-11T14:46:06;7.50;7.50;6.75
62778;PMS7003;48821;48.796;2.396;2022-11-11T14:47:22;8.25;8.00;6.75
62778;PMS7003;48821;48.796;2.396;2022-11-11T14:48:50;10.50;9.25;7.50
62778;PMS7003;48821;48.796;2.396;2022-11-11T14:50:53;10.25;10.00;8.50
62778;PMS7003;48821;48.796;2.396;2022-11-11T14:51:45;11.75;9.75;7.75
62778;PMS7003;48821;48.796;2.396;2022-11-11T14:53:00;12.50;9.50;8.50
62778;PMS7003;48821;48.796;2.396;2022-11-11T14:54:20;11.50;11.50;9.00
62778;PMS7003;48821;48.796;2.396;2022-11-11T14:55:35;9.25;9.25;7.75
62778;PMS7003;48821;48.796;2.396;2022-11-11T14:57:05;10.50;8.25;7.00
62778;PMS7003;48821;48.796;2.396;2022-11-11T14:58:19;10.00;10.00;7.25
62778;PMS7003;48821;48.796;2.396;2022-11-11T14:59:33;9.75;9.75;8.00
62778;PMS7003;48821;48.796;2.396;2022-11-11T15:02:29;13.50;12.50;9.25
62778;PMS7003;48821;48.796;2.396;2022-11-11T15:03:44;14.50;11.50;8.75
62778;PMS7003;48821;48.796;2.396;2022-11-11T15:04:59;20.50;14.75;10.75
62778;PMS7003;48821;48.796;2.396;2022-11-11T15:06:32;17.00;14.50;10.00
62778;PMS7003;48821;48.796;2.396;2022-11-11T15:09:46;14.50;11.25;9.00
62778;PMS7003;48821;48.796;2.396;2022-11-11T15:15:25;12.00;9.75;8.25
62778;PMS7003;48821;48.796;2.396;2022-11-11T15:16:48;11.25;9.50;6.75
62778;PMS7003;48821;48.796;2.396;2022-11-11T15:19:36;16.75;10.50;8.50
62778;PMS7003;48821;48.796;2.396;2022-11-11T15:24:15;10.75;10.75;7.50
62778;PMS7003;48821;48.796;2.396;2022-11-11T15:26:04;13.75;11.00;8.50
62778;PMS7003;48821;48.796;2.396;2022-11-11T15:34:07;12.25;10.50;7.50
62778;PMS7003;48821;48.796;2.396;2022-11-11T15:37:02;13.75;10.75;8.00
62778;PMS7003;48821;48.796;2.396;2022-11-11T15:38:18;9.75;8.75;6.25
62778;PMS7003;48821;48.796;2.396;2022-11-11T15:39:35;10.00;9.50;7.25
62778;PMS7003;48821;48.796;2.396;2022-11-11T15:40:55;8.75;8.75;6.50
62778;PMS7003;48821;48.796;2.396;2022-11-11T15:42:12;11.00;8.75;6.75
62778;PMS7003;48821;48.796;2.396;2022-11-11T15:43:47;8.75;8.25;6.50
62778;PMS7003;48821;48.796;2.396;2022-11-11T15:44:58;9.25;8.00;6.25
62778;PMS7003;48821;48.796;2.396;2022-11-11T15:46:21;9.75;8.00;6.50
62778;PMS7003;48821;48.796;2.396;2022-11-11T15:47:36;7.50;6.75;5.25
62778;PMS7003;48821;48.796;2.396;2022-11-11T15:48:46;9.00;7.25;6.25
62778;PMS7003;48821;48.796;2.396;2022-11-11T15:49:57;8.00;7.00;5.00
62778;PMS7003;48821;48.796;2.396;2022-11-11T15:52:36;9.00;7.25;5.50
62778;PMS7003;48821;48.796;2.396;2022-11-11T15:53:47;5.50;4.50;4.00
62778;PMS7003;48821;48.796;2.396;2022-11-11T15:54:58;10.25;8.25;5.50
62778;PMS7003;48821;48.796;2.396;2022-11-11T15:56:11;12.25;8.25;6.50
62778;PMS7003;48821;48.796;2.396;2022-11-11T15:58:33;9.50;8.00;6.50
62778;PMS7003;48821;48.796;2.396;2022-11-11T15:59:43;11.25;8.50;7.00
62778;PMS7003;48821;48.796;2.396;2022-11-11T16:00:54;8.50;7.75;5.50
62778;PMS7003;48821;48.796;2.396;2022-11-11T16:02:08;11.00;7.75;6.25
62778;PMS7003;48821;48.796;2.396;2022-11-11T16:03:32;8.75;7.75;5.25
62778;PMS7003;48821;48.796;2.396;2022-11-11T16:04:51;11.00;9.25;7.50
62778;PMS7003;48821;48.796;2.396;2022-11-11T16:06:09;8.00;6.00;5.00
62778;PMS7003;48821;48.796;2.396;2022-11-11T16:07:26;10.50;8.75;7.00
62778;PMS7003;48821;48.796;2.396;2022-11-11T16:08:51;9.50;8.00;6.50
62778;PMS7003;48821;48.796;2.396;2022-11-11T16:10:06;11.00;11.00;8.00
62778;PMS7003;48821;48.796;2.396;2022-11-11T16:11:22;8.50;8.00;6.25
62778;PMS7003;48821;48.796;2.396;2022-11-11T16:12:37;10.25;7.25;5.00
62778;PMS7003;48821;48.796;2.396;2022-11-11T16:13:59;9.75;9.25;8.25
62778;PMS7003;48821;48.796;2.396;2022-11-11T16:16:36;8.50;8.25;7.25
62778;PMS7003;48821;48.796;2.396;2022-11-11T16:17:49;7.50;6.50;4.50
62778;PMS7003;48821;48.796;2.396;2022-11-11T16:20:40;9.00;9.00;7.25
62778;PMS7003;48821;48.796;2.396;2022-11-11T16:23:15;10.25;10.25;8.25
62778;PMS7003;48821;48.796;2.396;2022-11-11T16:25:40;11.25;11.25;9.25
62778;PMS7003;48821;48.796;2.396;2022-11-11T16:26:51;12.50;11.00;8.25
62778;PMS7003;48821;48.796;2.396;2022-11-11T16:28:02;10.00;9.00;7.50
62778;PMS7003;48821;48.796;2.396;2022-11-11T16:29:13;1.25;1.25;0.75
62778;PMS7003;48821;48.796;2.396;2022-11-11T16:30:32;13.25;9.50;7.75
62778;PMS7003;48821;48.796;2.396;2022-11-11T16:31:44;12.00;9.50;8.00
62778;PMS7003;48821;48.796;2.396;2022-11-11T16:32:55;13.00;13.00;9.50
62778;PMS7003;48821;48.796;2.396;2022-11-11T16:35:39;12.00;12.00;9.25
62778;PMS7003;48821;48.796;2.396;2022-11-11T16:38:11;14.25;13.00;10.50
62778;PMS7003;48821;48.796;2.396;2022-11-11T16:39:39;17.25;15.00;10.00
62778;PMS7003;48821;48.796;2.396;2022-11-11T16:40:49;19.00;14.75;11.00
62778;PMS7003;48821;48.796;2.396;2022-11-11T16:42:00;15.00;14.00;9.50
62778;PMS7003;48821;48.796;2.396;2022-11-11T16:45:55;14.00;11.50;8.50
62778;PMS7003;48821;48.796;2.396;2022-11-11T16:48:47;16.00;14.00;11.25
62778;PMS7003;48821;48.796;2.396;2022-11-11T16:50:06;17.00;14.00;9.25
62778;PMS7003;48821;48.796;2.396;2022-11-11T16:51:44;14.75;14.00;9.00
62778;PMS7003;48821;48.796;2.396;2022-11-11T16:53:00;14.50;14.50;10.00
62778;PMS7003;48821;48.796;2.396;2022-11-11T16:54:17;16.00;13.50;8.75
62778;PMS7003;48821;48.796;2.396;2022-11-11T16:56:42;16.25;14.50;9.75
62778;PMS7003;48821;48.796;2.396;2022-11-11T16:57:58;14.25;14.25;10.00
62778;PMS7003;48821;48.796;2.396;2022-11-11T16:59:12;14.00;14.00;9.75
62778;PMS7003;48821;48.796;2.396;2022-11-11T17:00:26;19.50;15.25;11.75
62778;PMS7003;48821;48.796;2.396;2022-11-11T17:01:43;22.00;14.75;11.25
62778;PMS7003;48821;48.796;2.396;2022-11-11T17:03:12;17.50;15.25;10.00
62778;PMS7003;48821;48.796;2.396;2022-11-11T17:04:24;13.75;13.00;9.75
62778;PMS7003;48821;48.796;2.396;2022-11-11T17:07:03;18.00;13.75;11.00
62778;PMS7003;48821;48.796;2.396;2022-11-11T17:09:41;16.25;13.75;11.25
62778;PMS7003;48821;48.796;2.396;2022-11-11T17:10:51;16.00;15.75;11.25
62778;PMS7003;48821;48.796;2.396;2022-11-11T17:12:02;16.75;15.00;11.25
62778;PMS7003;48821;48.796;2.396;2022-11-11T17:13:13;19.25;16.25;12.25
62778;PMS7003;48821;48.796;2.396;2022-11-11T17:14:24;16.75;13.75;11.00
62778;PMS7003;48821;48.796;2.396;2022-11-11T17:15:36;21.50;15.00;11.25
62778;PMS7003;48821;48.796;2.396;2022-11-11T17:16:46;20.50;16.75;12.25
62778;PMS7003;48821;48.796;2.396;2022-11-11T17:17:57;19.25;17.75;13.75
62778;PMS7003;48821;48.796;2.396;2022-11-11T17:19:10;16.00;15.00;12.00
62778;PMS7003;48821;48.796;2.396;2022-11-11T17:20:20;19.25;16.00;12.25
62778;PMS7003;48821;48.796;2.396;2022-11-11T17:21:31;15.75;14.50;10.75
62778;PMS7003;48821;48.796;2.396;2022-11-11T17:22:45;14.25;12.25;8.25
62778;PMS7003;48821;48.796;2.396;2022-11-11T17:23:56;17.25;15.75;11.50
62778;PMS7003;48821;48.796;2.396;2022-11-11T17:25:06;20.75;19.25;14.00
62778;PMS7003;48821;48.796;2.396;2022-11-11T17:26:17;18.25;15.00;10.75